createdAt,value
2023-05-10T00:04:49.921Z,100660.72
2023-05-10T00:09:52.506Z,100662.94
2023-05-10T00:14:54.618Z,100659.47
2023-05-10T00:19:56.958Z,100659.28
2023-05-10T00:24:59.604Z,100666.78
2023-05-10T00:30:01.753Z,100665.97
2023-05-10T00:35:04.075Z,100663.53
2023-05-10T00:40:07.410Z,100665.75
2023-05-10T00:45:09.843Z,100662.47
2023-05-10T00:50:12.073Z,100664.13
2023-05-10T00:55:14.430Z,100647.59
2023-05-10T01:00:19.954Z,100654.47
2023-05-10T01:05:22.272Z,100639.03
2023-05-10T01:10:24.856Z,100654.19
2023-05-10T01:15:27.855Z,100651.97
2023-05-10T01:20:49.710Z,100651.69
2023-05-10T01:26:00.591Z,100642.06
2023-05-10T01:31:24.620Z,100647.88
2023-05-10T01:36:48.670Z,100648.69
2023-05-10T01:42:03.243Z,100642.66
2023-05-10T01:47:40.778Z,100649.22
2023-05-10T01:52:46.477Z,100650.34
2023-05-10T01:57:54.736Z,100643.72
2023-05-10T02:02:58.158Z,100617.81
2023-05-10T02:08:02.361Z,100639.03
2023-05-10T02:13:07.339Z,100638.44
2023-05-10T02:18:11.912Z,100614.44
2023-05-10T02:23:16.546Z,100629.81
2023-05-10T02:28:20.107Z,100608.31
2023-05-10T02:33:23.369Z,100615.19
2023-05-10T02:38:27.920Z,100614.34
2023-05-10T02:43:33.355Z,100615.91
2023-05-10T02:48:35.545Z,100626.59
2023-05-10T02:53:42.025Z,100626.59
2023-05-10T02:58:44.230Z,100627.37
2023-05-10T03:03:46.378Z,100616.41
2023-05-10T03:08:48.620Z,100627.72
2023-05-10T03:14:27.154Z,100627.25
2023-05-10T03:19:41.085Z,100612.75
2023-05-10T03:24:44.164Z,100628.78
2023-05-10T03:29:47.530Z,100609.03
2023-05-10T03:34:49.726Z,100632.44
2023-05-10T03:39:51.932Z,100626.66
2023-05-10T03:44:54.211Z,100628.28
2023-05-10T03:49:56.725Z,100548.50
2023-05-10T03:54:58.868Z,100633.25
2023-05-10T04:00:01.290Z,100620.84
2023-05-10T04:05:03.622Z,100624.41
2023-05-10T04:10:06.247Z,100623.25
2023-05-10T04:15:09.241Z,100631.47
2023-05-10T04:20:12.108Z,100627.03
2023-05-10T04:25:14.352Z,100614.34
2023-05-10T04:30:16.778Z,100623.75
2023-05-10T04:35:19.245Z,100621.34
2023-05-10T04:40:21.780Z,100620.56
2023-05-10T04:45:23.969Z,100637.09
2023-05-10T04:50:26.098Z,100627.78
2023-05-10T04:55:28.474Z,100627.50
2023-05-10T05:00:30.579Z,100630.00
2023-05-10T05:05:32.742Z,100636.59
2023-05-10T05:10:34.906Z,100638.22
2023-05-10T05:15:37.103Z,100638.19
2023-05-10T05:20:39.302Z,100642.84
2023-05-10T05:25:41.463Z,100633.22
2023-05-10T05:30:43.572Z,100634.22
2023-05-10T05:35:48.599Z,100637.25
2023-05-10T05:40:50.861Z,100656.00
2023-05-10T05:45:59.073Z,100644.53
2023-05-10T05:51:01.504Z,100662.75
2023-05-10T05:56:04.855Z,100656.59
2023-05-10T06:01:07.022Z,100667.13
2023-05-10T06:06:09.208Z,100676.28
2023-05-10T06:11:11.497Z,100659.66
2023-05-10T06:16:14.283Z,100670.81
2023-05-10T06:21:17.264Z,100670.47
2023-05-10T06:26:19.438Z,100656.34
2023-05-10T06:31:22.106Z,100657.22
2023-05-10T06:36:26.068Z,100667.25
2023-05-10T06:41:28.314Z,100676.09
2023-05-10T06:46:36.461Z,100673.97
2023-05-10T06:51:38.578Z,100673.19
2023-05-10T06:56:40.748Z,100670.97
2023-05-10T07:01:43.227Z,100661.50
2023-05-10T07:06:47.297Z,100676.16
2023-05-10T07:11:49.396Z,100666.94
2023-05-10T07:16:51.595Z,100670.56
2023-05-10T07:21:53.714Z,100667.19
2023-05-10T07:26:55.939Z,100657.22
2023-05-10T07:31:59.005Z,100660.19
2023-05-10T07:37:02.094Z,100655.34
2023-05-10T07:42:04.436Z,100657.31
2023-05-10T07:47:06.650Z,100637.06
2023-05-10T07:52:08.838Z,100650.47
2023-05-10T07:57:11.009Z,100646.22
2023-05-10T08:02:13.281Z,100648.31
2023-05-10T08:07:15.510Z,100648.66
2023-05-10T08:12:17.740Z,100643.19
2023-05-10T08:17:20.932Z,100635.75
2023-05-10T08:22:24.271Z,100636.91
2023-05-10T08:27:26.482Z,100648.75
2023-05-10T08:32:28.673Z,100638.47
2023-05-10T08:37:31.415Z,100643.81
2023-05-10T08:42:37.104Z,100649.06
2023-05-10T08:47:40.519Z,100648.34
2023-05-10T08:52:43.070Z,100624.38
2023-05-10T08:57:45.690Z,100635.50
2023-05-10T09:02:50.673Z,100638.28
2023-05-10T09:07:53.865Z,100632.78
2023-05-10T09:12:59.355Z,100621.25
2023-05-10T09:18:03.739Z,100633.59
2023-05-10T09:23:06.817Z,100624.28
2023-05-10T09:28:10.653Z,100621.69
2023-05-10T09:33:12.851Z,100612.59
2023-05-10T09:38:14.977Z,100623.25
2023-05-10T09:43:17.111Z,100610.44
2023-05-10T09:48:19.237Z,100616.00
2023-05-10T09:53:21.386Z,100609.59
2023-05-10T09:58:23.516Z,100603.16
2023-05-10T10:03:26.539Z,100606.41
2023-05-10T10:08:30.163Z,100604.66
2023-05-10T10:13:33.160Z,100586.13
2023-05-10T10:18:39.822Z,100579.78
2023-05-10T10:23:42.062Z,100576.59
2023-05-10T10:28:48.334Z,100577.50
2023-05-10T10:33:56.634Z,100568.75
2023-05-10T10:39:02.620Z,100568.59
2023-05-10T10:44:35.317Z,100568.75
2023-05-10T10:49:49.319Z,100566.28
2023-05-10T10:54:53.392Z,100559.59
2023-05-10T11:00:21.439Z,100551.38
2023-05-10T11:05:29.678Z,100556.91
2023-05-10T11:10:31.901Z,100533.53
2023-05-10T11:15:39.297Z,100520.97
2023-05-10T11:20:41.580Z,100520.19
2023-05-10T11:25:45.213Z,100524.63
2023-05-10T11:30:48.172Z,100503.25
2023-05-10T11:35:50.413Z,100497.59
2023-05-10T11:40:52.943Z,100500.91
2023-05-10T11:45:55.957Z,100487.97
2023-05-10T11:50:58.999Z,100495.50
2023-05-10T11:56:08.063Z,100498.97
2023-05-10T12:01:11.337Z,100504.78
2023-05-10T12:06:13.627Z,100514.50
2023-05-10T12:11:18.734Z,100521.53
2023-05-10T12:16:23.546Z,100512.88
2023-05-10T12:21:26.718Z,100501.06
2023-05-10T12:26:30.128Z,100507.78
2023-05-10T12:31:32.304Z,100502.69
2023-05-10T12:36:39.694Z,100493.34
2023-05-10T12:41:43.578Z,100485.75
2023-05-10T12:46:45.943Z,100470.00
2023-05-10T12:51:48.077Z,100484.19
2023-05-10T12:56:50.181Z,100475.44
2023-05-10T13:01:52.345Z,100471.16
2023-05-10T13:06:56.541Z,100448.88
2023-05-10T13:11:58.894Z,100460.31
2023-05-10T13:17:01.176Z,100437.37
2023-05-10T13:22:04.180Z,100454.63
2023-05-10T13:27:06.484Z,100437.91
2023-05-10T13:32:08.872Z,100433.44
2023-05-10T13:37:11.088Z,100415.81
2023-05-10T13:42:13.249Z,100426.87
2023-05-10T13:47:15.741Z,100414.72
2023-05-10T13:52:17.917Z,100417.19
2023-05-10T13:57:20.070Z,100405.75
2023-05-10T14:02:22.276Z,100414.38
2023-05-10T14:07:24.447Z,100391.09
2023-05-10T14:12:26.810Z,100386.03
2023-05-10T14:17:28.973Z,100384.22
2023-05-10T14:22:31.082Z,100381.81
2023-05-10T14:27:33.631Z,100374.12
2023-05-10T14:32:37.646Z,100356.38
2023-05-10T14:37:40.061Z,100377.66
2023-05-10T14:42:43.460Z,100366.84
2023-05-10T14:47:45.587Z,100371.88
2023-05-10T14:52:48.081Z,100365.38
2023-05-10T14:57:51.704Z,100365.84
2023-05-10T15:02:53.907Z,100369.56
2023-05-10T15:07:56.878Z,100380.69
2023-05-10T15:12:59.223Z,100384.28
2023-05-10T15:18:01.479Z,100380.41
2023-05-10T15:23:04.031Z,100385.84
2023-05-10T15:28:06.177Z,100390.03
2023-05-10T15:33:09.713Z,100377.13
2023-05-10T15:38:12.614Z,100382.91
2023-05-10T15:43:15.104Z,100372.94
2023-05-10T15:48:17.406Z,100363.91
2023-05-10T15:53:19.685Z,100362.00
2023-05-10T15:58:21.878Z,100350.44
2023-05-10T16:03:25.123Z,100369.78
2023-05-10T16:08:30.759Z,100366.09
2023-05-10T16:13:32.926Z,100356.41
2023-05-10T16:18:35.765Z,100370.50
2023-05-10T16:23:38.076Z,100369.28
2023-05-10T16:28:41.004Z,100363.88
2023-05-10T16:33:43.704Z,100373.72
2023-05-10T16:38:45.936Z,100374.53
2023-05-10T16:43:48.217Z,100382.94
2023-05-10T16:48:50.395Z,100378.06
2023-05-10T16:53:53.532Z,100381.12
2023-05-10T16:58:55.686Z,100388.03
2023-05-10T17:03:57.977Z,100381.59
2023-05-10T17:09:01.124Z,100400.66
2023-05-10T17:14:03.399Z,100410.81
2023-05-10T17:19:05.928Z,100398.84
2023-05-10T17:24:08.326Z,100411.41
2023-05-10T17:29:10.879Z,100404.56
2023-05-10T17:34:13.201Z,100412.53
2023-05-10T17:39:15.635Z,100414.47
2023-05-10T17:44:17.815Z,100408.84
2023-05-10T17:49:19.930Z,100430.75
2023-05-10T17:54:22.257Z,100426.06
2023-05-10T17:59:24.384Z,100423.09
2023-05-10T18:04:26.614Z,100434.84
2023-05-10T18:09:29.306Z,100430.22
2023-05-10T18:14:40.424Z,100431.62
2023-05-10T18:19:43.125Z,100437.72
2023-05-10T18:24:47.100Z,100453.97
2023-05-10T18:29:49.291Z,100442.34
2023-05-10T18:34:52.454Z,100462.59
2023-05-10T18:39:56.430Z,100444.94
2023-05-10T18:44:58.573Z,100463.41
2023-05-10T18:50:00.989Z,100461.41
2023-05-10T18:55:03.616Z,100471.13
2023-05-10T19:00:07.151Z,100471.44
2023-05-10T19:05:09.959Z,100479.22
2023-05-10T19:10:15.555Z,100490.53
2023-05-10T19:15:19.403Z,100467.72
2023-05-10T19:20:24.649Z,100497.22
2023-05-10T19:25:29.431Z,100497.00
2023-05-10T19:30:31.824Z,100488.47
2023-05-10T19:35:34.081Z,100492.06
2023-05-10T19:40:36.547Z,100494.13
2023-05-10T19:45:38.771Z,100486.12
2023-05-10T19:50:41.089Z,100480.66
2023-05-10T19:55:43.247Z,100492.38
2023-05-10T20:00:45.596Z,100487.44
2023-05-10T20:05:47.723Z,100487.97
2023-05-10T20:10:49.829Z,100487.44
2023-05-10T20:15:59.492Z,100491.06
2023-05-10T20:21:01.739Z,100491.16
2023-05-10T20:26:04.544Z,100491.47
2023-05-10T20:31:06.703Z,100486.12
2023-05-10T20:36:09.725Z,100485.41
2023-05-10T20:41:12.021Z,100495.88
2023-05-10T20:46:14.273Z,100498.56
2023-05-10T20:51:16.420Z,100480.06
2023-05-10T20:56:18.981Z,100497.72
2023-05-10T21:01:21.161Z,100484.91
2023-05-10T21:06:23.304Z,100495.97
2023-05-10T21:11:25.741Z,100500.69
2023-05-10T21:16:28.246Z,100488.09
2023-05-10T21:21:30.482Z,100500.16
2023-05-10T21:26:32.692Z,100494.13
2023-05-10T21:31:34.922Z,100484.87
2023-05-10T21:36:37.094Z,100484.53
2023-05-10T21:41:39.266Z,100491.44
2023-05-10T21:46:41.432Z,100477.25
2023-05-10T21:51:43.876Z,100490.31
2023-05-10T21:56:46.052Z,100491.53
2023-05-10T22:01:48.194Z,100494.81
2023-05-10T22:06:50.637Z,100491.31
2023-05-10T22:11:52.793Z,100506.41
2023-05-10T22:16:54.977Z,100491.53
2023-05-10T22:21:57.206Z,100499.91
2023-05-10T22:26:59.550Z,100496.25
2023-05-10T22:32:05.680Z,100506.28
2023-05-10T22:37:07.900Z,100495.81
2023-05-10T22:42:10.154Z,100513.47
2023-05-10T22:47:12.346Z,100502.13
2023-05-10T22:52:14.442Z,100500.66
2023-05-10T22:57:17.293Z,100520.56
2023-05-10T23:02:19.537Z,100502.78
2023-05-10T23:07:22.012Z,100521.81
2023-05-10T23:12:24.226Z,100513.81
2023-05-10T23:17:26.384Z,100517.09
2023-05-10T23:22:28.552Z,100522.00
2023-05-10T23:27:31.056Z,100519.25
2023-05-10T23:32:33.308Z,100517.16
2023-05-10T23:37:36.644Z,100503.03
2023-05-10T23:42:38.941Z,100522.91
2023-05-10T23:47:41.594Z,100534.84
2023-05-10T23:52:43.749Z,100532.69
2023-05-10T23:57:46.093Z,100522.53
